Egegik Airport

About
Name: Egegik Airport
Identifier:  EGX/PAII
Serves:  Egegik, Alaska
Owner:  City of Egegik
Public/Private:  Public
Local Time:  18. Aug 05:14 AKDT
Description: Egegik Airport is a city-owned, public-use airport serving Egegik, a city in the Lake and Peninsula Borough of the U.S. state of Alaska. Scheduled passenger service is available at this airport.
Source: Wikipedia
Location
Runways
Identifier Length (m/ft) Surface
12/30 5,600/5,600 Gravel
3/21 1,500/1,500 Gravel
Flights per Day
6 flights
Distance: 69km (42mi)
Punctuality
93% (0 flights per day delayed)
Delay Average: 75 minutes
Current Weather
 12 C (Humidity: 66%)
  18kt (33km/h / 20mph) from 130°
25 knots Gusts

  Few clouds at 2,400 feet (731 meter)
  16km (10 mi.)
 METAR PAII 312356Z AUTO 13018G25KT 10SM FEW024 12/06 A2972 RMK AO2 PK WND 13026/2333 SLP066 P0001 60002 T01220061 10128 20078 53002

Current Flights

Departures

Current Delays

Departures
N/A
Arrivals
N/A

Destinations

Top Destinations
Airport Flights
per week
Seats
per week
  Anchorage (ANC) 0 - 0 0

Airlines & Planes

Top Airlines
Airline Flights
per Day
Seats
per Day
Alaska Central Express 0 -
Top Plane Types
Model Flights Seats
Beech 1900D 0.0/day - 0